LELO

Logroño-Agoncillo Airport

Airport
ICAO code
LELO
IATA Code
RJL
Summary
ICAO Region
EUR
ICAO Territory
Location

,

Serving
Logroño-Agoncillo
Elevation
1161 ft
Coordinates
42° 27' 15" N , 2° 19' 15" W
Metar
LELO 221730Z VRB07KT 3000 RA FEW015 BKN035 08/05 Q1008

Airport map

Aerial View

SKYbrary Partners:

Safety knowledge contributed by: